Addieville, Illinois
Current Conditions -  °F | °C
As of 4:35 AM on Friday 31 Oct 2014 (Local Time) from KSAR Reporting Station
Overcast Overcast  
Wind Chill: 44°   Ceiling: 400
Heat Index: 47°   Visibility: 7mi
Dew Point: 46°   Wind: 7mph
Humidity: 96%   Direction: 350°N
Pressure: 30.07"   Gusts: NA
Location:  38.39°N, 89.49°W
Report Text: KSAR 310935Z AUTO 35006KT 7SM OVC004 09/08 A3007 RMK AO2 T00860080
Loading
Personal Weather Stations






























Interactive Weather Map
Tropical Storm Tracking
New forecast layout! Learn more

10-Day Weather Forecast

Advertisements
Track Severe Weather on mobile